TFFR Airport Information

Runway Information
Runway 12 Length 11499 ft width 148 ft
Elevation 5 ft Threshold 1312 ft Heading 101
Runway 30 Length 11499 ft Width 148 ft
Elevation 32 ft Threshold 820 ft Heading 281
Airport Frequencies
Type APP Name RAIZET APP Frequency 121.3 MHZ
Type ATIS Name ATIS Frequency 127.6 MHZ
Type GND Name GND Frequency 121.85 MHZ
Type TWR Name RAIZET TWR Frequency 118.4 MHZ
Airport Navaids
Type VOR-DME Name Pointe A Pitre Frequency 112900 KHZ
Type NDB Name Pointe A Pitre Frequency 385 KHZ
Airport Weather Information & NOTAM
ADDS - METARS form results

(1051 UTC 23 May 2019)
Data provider http://aviationweather.gov/metar/data/
 
METAR text: TFFR 231030Z AUTO VRB03KT 9999 SCT023 BKN035 BKN048 26/23 Q1014 NOSIG
Conditions at: TFFR (LE RAIZET , GP) observed 1030 UTC 23 May 2019
Temperature: 26.0°C (79°F)
Dewpoint: 23.0°C (73°F) [RH = 84%]
Pressure (altimeter): 29.94 inches Hg (1014.0 mb)
Winds: variable direction winds at 3 MPH (3 knots; 1.5 m/s)
Visibility: 6 or more miles (10+ km)
Ceiling: 3500 feet AGL
Clouds: scattered clouds at 2300 feet AGL
broken clouds at 3500 feet AGL
broken clouds at 4800 feet AGL
Weather: no significant weather observed at this time

METAR text: TFFR 231000Z AUTO VRB01KT 9999 SCT025 OVC090 25/22 Q1014 NOSIG
Conditions at: TFFR (LE RAIZET , GP) observed 1000 UTC 23 May 2019
Temperature: 25.0°C (77°F)
Dewpoint: 22.0°C (72°F) [RH = 83%]
Pressure (altimeter): 29.94 inches Hg (1014.0 mb)
Winds: variable direction winds at 1 MPH (1 knots; 0.5 m/s)
Visibility: 6 or more miles (10+ km)
Ceiling: 9000 feet AGL
Clouds: scattered clouds at 2500 feet AGL
overcast cloud deck at 9000 feet AGL
Weather: no significant weather observed at this time

Forecast for: TFFR (LE RAIZET , GP)
Text: TAF TFFR 230500Z 2306/2406 10009KT 9999 SCT025
Forecast period: 0600 UTC 23 May 2019 to 0600 UTC 24 May 2019
Forecast type: FROM: standard forecast or significant change
Winds: from the E (100 degrees) at 10 MPH (9 knots; 4.6 m/s)
Visibility: 6 or more miles 10+ km)
Ceiling: at least 12,000 feet AGL
Clouds: scattered clouds at 2500 feet AGL
Weather: no significant weather forecast for this period
Text: PROB30
Forecast period: 1800 to 2100 UTC 23 May 2019
Forecast type: TEMPORARY: The following changes expected for less than half the time period
Visibility: 2.49 miles (4.01 km)
Ceiling: at least 12,000 feet AGL
Clouds: few clouds at 2000 feet AGL
Weather: SHRA  (rain showers)
Text: TEMPO 2318/2321 4000 SHRA FEW020TCU
Forecast period: 0400 to 0600 UTC 24 May 2019
Forecast type: TEMPORARY: The following changes expected for less than half the time period
Visibility: 2.49 miles (4.01 km)
Ceiling: at least 12,000 feet AGL
Clouds: scattered clouds at 2000 feet AGL
Weather: SHRA  (rain showers)